sensor_id;sensor_type;location;lat;lon;timestamp;pressure;altitude;pressure_sealevel;temperature;humidity
63556;BME280;49700;48.072;7.800;2022-10-16T00:01:11;99290.22;;;16.32;nan
63556;BME280;49700;48.072;7.800;2022-10-16T00:03:38;99298.03;;;16.34;nan
63556;BME280;49700;48.072;7.800;2022-10-16T00:06:05;99298.72;;;16.36;nan
63556;BME280;49700;48.072;7.800;2022-10-16T00:08:31;99300.25;;;16.38;nan
63556;BME280;49700;48.072;7.800;2022-10-16T00:11:05;99300.13;;;16.40;nan
63556;BME280;49700;48.072;7.800;2022-10-16T00:13:32;99307.91;;;16.42;nan
63556;BME280;49700;48.072;7.800;2022-10-16T00:15:59;99300.13;;;16.40;nan
63556;BME280;49700;48.072;7.800;2022-10-16T00:18:25;99305.13;;;16.43;nan
63556;BME280;49700;48.072;7.800;2022-10-16T00:20:51;99302.47;;;16.43;nan
63556;BME280;49700;48.072;7.800;2022-10-16T00:23:17;99303.47;;;16.42;nan
63556;BME280;49700;48.072;7.800;2022-10-16T00:25:42;99303.75;;;16.39;nan
63556;BME280;49700;48.072;7.800;2022-10-16T00:28:08;99304.59;;;16.40;nan
63556;BME280;49700;48.072;7.800;2022-10-16T00:30:33;99301.94;;;16.40;nan
63556;BME280;49700;48.072;7.800;2022-10-16T00:32:59;99305.41;;;16.40;nan
63556;BME280;49700;48.072;7.800;2022-10-16T00:35:24;99303.88;;;16.37;nan
63556;BME280;49700;48.072;7.800;2022-10-16T00:37:50;99306.00;;;16.34;nan
63556;BME280;49700;48.072;7.800;2022-10-16T00:40:16;99309.19;;;16.28;nan
63556;BME280;49700;48.072;7.800;2022-10-16T00:42:41;99305.16;;;16.24;nan
63556;BME280;49700;48.072;7.800;2022-10-16T00:45:08;99313.22;;;16.22;nan
63556;BME280;49700;48.072;7.800;2022-10-16T00:47:37;99312.28;;;16.23;nan
63556;BME280;49700;48.072;7.800;2022-10-16T00:50:24;99317.41;;;16.25;nan
63556;BME280;49700;48.072;7.800;2022-10-16T00:52:52;99318.13;;;16.27;nan
63556;BME280;49700;48.072;7.800;2022-10-16T00:55:18;99320.66;;;16.28;nan
63556;BME280;49700;48.072;7.800;2022-10-16T00:57:45;99320.50;;;16.30;nan
63556;BME280;49700;48.072;7.800;2022-10-16T01:00:14;99322.31;;;16.29;nan
63556;BME280;49700;48.072;7.800;2022-10-16T01:02:41;99328.31;;;16.31;nan
63556;BME280;49700;48.072;7.800;2022-10-16T01:05:06;99331.09;;;16.30;nan
63556;BME280;49700;48.072;7.800;2022-10-16T01:10:49;99334.84;;;16.27;nan
63556;BME280;49700;48.072;7.800;2022-10-16T01:13:29;99333.91;;;16.28;nan
63556;BME280;49700;48.072;7.800;2022-10-16T01:16:14;99343.34;;;16.31;nan
63556;BME280;49700;48.072;7.800;2022-10-16T01:19:08;99348.53;;;16.32;nan
63556;BME280;49700;48.072;7.800;2022-10-16T01:21:39;99343.22;;;16.32;nan
63556;BME280;49700;48.072;7.800;2022-10-16T01:24:23;99337.09;;;16.32;nan
63556;BME280;49700;48.072;7.800;2022-10-16T01:30:09;99338.34;;;16.28;nan
63556;BME280;49700;48.072;7.800;2022-10-16T01:35:24;99338.34;;;16.28;nan
63556;BME280;49700;48.072;7.800;2022-10-16T01:38:11;99335.97;;;16.25;nan
63556;BME280;49700;48.072;7.800;2022-10-16T01:40:40;99345.03;;;16.22;nan
63556;BME280;49700;48.072;7.800;2022-10-16T01:43:12;99323.28;;;16.19;nan
63556;BME280;49700;48.072;7.800;2022-10-16T01:45:40;99321.88;;;16.14;nan
63556;BME280;49700;48.072;7.800;2022-10-16T01:48:07;99330.00;;;16.13;nan
63556;BME280;49700;48.072;7.800;2022-10-16T01:50:37;99325.66;;;16.12;nan
63556;BME280;49700;48.072;7.800;2022-10-16T01:53:05;99322.16;;;16.11;nan
63556;BME280;49700;48.072;7.800;2022-10-16T01:55:36;99318.97;;;16.08;nan
63556;BME280;49700;48.072;7.800;2022-10-16T01:58:05;99330.81;;;16.04;nan
63556;BME280;49700;48.072;7.800;2022-10-16T02:00:32;99313.38;;;16.01;nan
63556;BME280;49700;48.072;7.800;2022-10-16T02:03:01;99317.84;;;16.01;nan
63556;BME280;49700;48.072;7.800;2022-10-16T02:05:35;99322.59;;;15.97;nan
63556;BME280;49700;48.072;7.800;2022-10-16T02:08:03;99326.34;;;15.95;nan
63556;BME280;49700;48.072;7.800;2022-10-16T02:10:28;99321.88;;;15.95;nan
63556;BME280;49700;48.072;7.800;2022-10-16T02:13:03;99326.63;;;15.91;nan
63556;BME280;49700;48.072;7.800;2022-10-16T02:15:31;99326.91;;;15.88;nan
63556;BME280;49700;48.072;7.800;2022-10-16T02:17:56;99327.03;;;15.87;nan
63556;BME280;49700;48.072;7.800;2022-10-16T02:20:25;99330.81;;;15.84;nan
63556;BME280;49700;48.072;7.800;2022-10-16T02:22:54;99333.16;;;15.87;nan
63556;BME280;49700;48.072;7.800;2022-10-16T02:28:07;99335.97;;;15.86;nan
63556;BME280;49700;48.072;7.800;2022-10-16T02:30:40;99325.78;;;15.81;nan
63556;BME280;49700;48.072;7.800;2022-10-16T02:33:09;99329.81;;;15.76;nan
63556;BME280;49700;48.072;7.800;2022-10-16T02:35:37;99326.47;;;15.74;nan
63556;BME280;49700;48.072;7.800;2022-10-16T02:38:04;99325.63;;;15.73;nan
63556;BME280;49700;48.072;7.800;2022-10-16T02:40:31;99326.75;;;15.70;nan
63556;BME280;49700;48.072;7.800;2022-10-16T02:42:56;99333.75;;;15.72;nan
63556;BME280;49700;48.072;7.800;2022-10-16T02:45:24;99334.56;;;15.72;nan
63556;BME280;49700;48.072;7.800;2022-10-16T02:47:50;99339.72;;;15.74;nan
63556;BME280;49700;48.072;7.800;2022-10-16T02:50:15;99328.28;;;15.73;nan
63556;BME280;49700;48.072;7.800;2022-10-16T02:52:41;99340.69;;;15.73;nan
63556;BME280;49700;48.072;7.800;2022-10-16T02:55:06;99346.69;;;15.75;nan
63556;BME280;49700;48.072;7.800;2022-10-16T02:57:32;99345.84;;;15.74;nan
63556;BME280;49700;48.072;7.800;2022-10-16T02:59:58;99344.19;;;15.73;nan
63556;BME280;49700;48.072;7.800;2022-10-16T03:02:23;99340.53;;;15.74;nan
63556;BME280;49700;48.072;7.800;2022-10-16T03:04:49;99340.53;;;15.74;nan
63556;BME280;49700;48.072;7.800;2022-10-16T03:07:14;99334.56;;;15.72;nan
63556;BME280;49700;48.072;7.800;2022-10-16T03:09:39;99342.78;;;15.69;nan
63556;BME280;49700;48.072;7.800;2022-10-16T03:12:05;99348.19;;;15.67;nan
63556;BME280;49700;48.072;7.800;2022-10-16T03:14:30;99328.94;;;15.65;nan
63556;BME280;49700;48.072;7.800;2022-10-16T03:16:56;99330.03;;;15.63;nan
63556;BME280;49700;48.072;7.800;2022-10-16T03:19:21;99332.69;;;15.63;nan
63556;BME280;49700;48.072;7.800;2022-10-16T03:21:46;99332.69;;;15.63;nan
63556;BME280;49700;48.072;7.800;2022-10-16T03:24:12;99321.53;;;15.59;nan
63556;BME280;49700;48.072;7.800;2022-10-16T03:26:37;99327.81;;;15.58;nan
63556;BME280;49700;48.072;7.800;2022-10-16T03:29:03;99326.00;;;15.59;nan
63556;BME280;49700;48.072;7.800;2022-10-16T03:31:29;99326.56;;;15.62;nan
63556;BME280;49700;48.072;7.800;2022-10-16T03:33:55;99336.88;;;15.65;nan
63556;BME280;49700;48.072;7.800;2022-10-16T03:36:23;99335.22;;;15.64;nan
63556;BME280;49700;48.072;7.800;2022-10-16T03:38:49;99342.16;;;15.65;nan
63556;BME280;49700;48.072;7.800;2022-10-16T03:41:14;99343.88;;;15.66;nan
63556;BME280;49700;48.072;7.800;2022-10-16T03:43:40;99338.56;;;15.66;nan
63556;BME280;49700;48.072;7.800;2022-10-16T03:46:05;99340.34;;;15.66;nan
63556;BME280;49700;48.072;7.800;2022-10-16T03:48:31;99349.41;;;15.63;nan
63556;BME280;49700;48.072;7.800;2022-10-16T03:50:57;99352.06;;;15.63;nan
63556;BME280;49700;48.072;7.800;2022-10-16T03:53:23;99339.97;;;15.61;nan
63556;BME280;49700;48.072;7.800;2022-10-16T03:55:48;99348.03;;;15.59;nan
63556;BME280;49700;48.072;7.800;2022-10-16T03:58:14;99356.94;;;15.58;nan
63556;BME280;49700;48.072;7.800;2022-10-16T04:00:44;99344.81;;;15.56;nan
63556;BME280;49700;48.072;7.800;2022-10-16T04:03:10;99343.97;;;15.55;nan
63556;BME280;49700;48.072;7.800;2022-10-16T04:05:35;99346.75;;;15.54;nan
63556;BME280;49700;48.072;7.800;2022-10-16T04:08:01;99341.59;;;15.52;nan
63556;BME280;49700;48.072;7.800;2022-10-16T04:10:26;99337.97;;;15.53;nan
63556;BME280;49700;48.072;7.800;2022-10-16T04:12:52;99358.31;;;15.53;nan
63556;BME280;49700;48.072;7.800;2022-10-16T04:15:20;99343.28;;;15.53;nan
63556;BME280;49700;48.072;7.800;2022-10-16T04:17:45;99338.09;;;15.52;nan
63556;BME280;49700;48.072;7.800;2022-10-16T04:20:11;99351.50;;;15.50;nan
63556;BME280;49700;48.072;7.800;2022-10-16T04:22:37;99356.09;;;15.48;nan
63556;BME280;49700;48.072;7.800;2022-10-16T04:25:02;99345.34;;;15.49;nan
63556;BME280;49700;48.072;7.800;2022-10-16T04:27:28;99343.78;;;15.47;nan
63556;BME280;49700;48.072;7.800;2022-10-16T04:29:53;99358.72;;;15.48;nan
63556;BME280;49700;48.072;7.800;2022-10-16T04:32:19;99361.09;;;15.51;nan
63556;BME280;49700;48.072;7.800;2022-10-16T04:34:44;99347.88;;;15.51;nan
63556;BME280;49700;48.072;7.800;2022-10-16T04:37:09;99353.16;;;15.51;nan
63556;BME280;49700;48.072;7.800;2022-10-16T04:39:35;99343.56;;;15.50;nan
63556;BME280;49700;48.072;7.800;2022-10-16T04:42:00;99349.69;;;15.51;nan
63556;BME280;49700;48.072;7.800;2022-10-16T04:44:26;99361.09;;;15.51;nan
63556;BME280;49700;48.072;7.800;2022-10-16T04:46:51;99359.16;;;15.53;nan
63556;BME280;49700;48.072;7.800;2022-10-16T04:49:17;99363.34;;;15.56;nan
63556;BME280;49700;48.072;7.800;2022-10-16T04:51:42;99350.78;;;15.58;nan
63556;BME280;49700;48.072;7.800;2022-10-16T04:54:09;99349.84;;;15.59;nan
63556;BME280;49700;48.072;7.800;2022-10-16T04:56:34;99353.44;;;15.58;nan
63556;BME280;49700;48.072;7.800;2022-10-16T04:59:05;99352.59;;;15.57;nan
63556;BME280;49700;48.072;7.800;2022-10-16T05:01:30;99358.88;;;15.56;nan
63556;BME280;49700;48.072;7.800;2022-10-16T05:03:56;99363.34;;;15.56;nan
63556;BME280;49700;48.072;7.800;2022-10-16T05:06:21;99374.78;;;15.56;nan
63556;BME280;49700;48.072;7.800;2022-10-16T05:08:47;99375.59;;;15.57;nan
63556;BME280;49700;48.072;7.800;2022-10-16T05:11:12;99377.41;;;15.56;nan
63556;BME280;49700;48.072;7.800;2022-10-16T05:13:37;99372.84;;;15.58;nan
63556;BME280;49700;48.072;7.800;2022-10-16T05:16:03;99372.84;;;15.58;nan
63556;BME280;49700;48.072;7.800;2022-10-16T05:18:28;99383.16;;;15.61;nan
63556;BME280;49700;48.072;7.800;2022-10-16T05:20:54;99382.88;;;15.64;nan
63556;BME280;49700;48.072;7.800;2022-10-16T05:23:19;99371.28;;;15.65;nan
63556;BME280;49700;48.072;7.800;2022-10-16T05:25:55;99387.91;;;15.67;nan
63556;BME280;49700;48.072;7.800;2022-10-16T05:28:23;99389.84;;;15.65;nan
63556;BME280;49700;48.072;7.800;2022-10-16T05:30:49;99377.56;;;15.64;nan
63556;BME280;49700;48.072;7.800;2022-10-16T05:33:15;99377.56;;;15.64;nan
63556;BME280;49700;48.072;7.800;2022-10-16T05:35:40;99368.66;;;15.65;nan
63556;BME280;49700;48.072;7.800;2022-10-16T05:38:06;99369.47;;;15.66;nan
63556;BME280;49700;48.072;7.800;2022-10-16T05:40:31;99373.13;;;15.65;nan
63556;BME280;49700;48.072;7.800;2022-10-16T05:42:56;99373.13;;;15.65;nan
63556;BME280;49700;48.072;7.800;2022-10-16T05:45:22;99383.44;;;15.68;nan
63556;BME280;49700;48.072;7.800;2022-10-16T05:47:47;99390.53;;;15.67;nan
63556;BME280;49700;48.072;7.800;2022-10-16T05:50:13;99394.03;;;15.68;nan
63556;BME280;49700;48.072;7.800;2022-10-16T05:52:39;99397.66;;;15.67;nan
63556;BME280;49700;48.072;7.800;2022-10-16T05:55:05;99387.91;;;15.67;nan
63556;BME280;49700;48.072;7.800;2022-10-16T05:57:30;99389.59;;;15.68;nan
63556;BME280;49700;48.072;7.800;2022-10-16T05:59:56;99394.88;;;15.68;nan
63556;BME280;49700;48.072;7.800;2022-10-16T06:02:21;99399.22;;;15.69;nan
63556;BME280;49700;48.072;7.800;2022-10-16T06:04:47;99398.13;;;15.72;nan
63556;BME280;49700;48.072;7.800;2022-10-16T06:07:12;99387.53;;;15.72;nan
63556;BME280;49700;48.072;7.800;2022-10-16T06:09:37;99405.09;;;15.73;nan
63556;BME280;49700;48.072;7.800;2022-10-16T06:12:03;99407.59;;;15.75;nan
63556;BME280;49700;48.072;7.800;2022-10-16T06:14:29;99411.91;;;15.76;nan
63556;BME280;49700;48.072;7.800;2022-10-16T06:16:54;99418.19;;;15.75;nan
63556;BME280;49700;48.072;7.800;2022-10-16T06:19:19;99433.22;;;15.74;nan
63556;BME280;49700;48.072;7.800;2022-10-16T06:21:45;99428.09;;;15.73;nan
63556;BME280;49700;48.072;7.800;2022-10-16T06:24:11;99437.69;;;15.74;nan
63556;BME280;49700;48.072;7.800;2022-10-16T06:26:37;99438.53;;;15.74;nan
63556;BME280;49700;48.072;7.800;2022-10-16T06:29:02;99456.22;;;15.74;nan
63556;BME280;49700;48.072;7.800;2022-10-16T06:31:28;99459.03;;;15.72;nan
63556;BME280;49700;48.072;7.800;2022-10-16T06:33:56;99468.63;;;15.73;nan
63556;BME280;49700;48.072;7.800;2022-10-16T06:36:23;99472.13;;;15.74;nan
63556;BME280;49700;48.072;7.800;2022-10-16T06:38:49;99472.81;;;15.76;nan
63556;BME280;49700;48.072;7.800;2022-10-16T06:41:18;99473.53;;;15.78;nan
63556;BME280;49700;48.072;7.800;2022-10-16T06:43:45;99456.53;;;15.80;nan
63556;BME280;49700;48.072;7.800;2022-10-16T06:46:12;99454.56;;;15.82;nan
63556;BME280;49700;48.072;7.800;2022-10-16T06:48:38;99465.88;;;15.84;nan
63556;BME280;49700;48.072;7.800;2022-10-16T06:51:05;99455.16;;;15.86;nan
63556;BME280;49700;48.072;7.800;2022-10-16T06:53:33;99470.78;;;15.89;nan
63556;BME280;49700;48.072;7.800;2022-10-16T06:56:15;99484.84;;;15.89;nan
63556;BME280;49700;48.072;7.800;2022-10-16T06:58:42;99497.97;;;15.91;nan
63556;BME280;49700;48.072;7.800;2022-10-16T07:01:08;99502.84;;;15.96;nan
63556;BME280;49700;48.072;7.800;2022-10-16T07:03:36;99488.66;;;15.97;nan
63556;BME280;49700;48.072;7.800;2022-10-16T07:06:03;99500.78;;;15.99;nan
63556;BME280;49700;48.072;7.800;2022-10-16T07:08:37;99487.41;;;16.01;nan
63556;BME280;49700;48.072;7.800;2022-10-16T07:11:05;99493.41;;;16.03;nan
63556;BME280;49700;48.072;7.800;2022-10-16T07:13:38;99489.66;;;16.05;nan
63556;BME280;49700;48.072;7.800;2022-10-16T07:16:15;99491.31;;;16.06;nan
63556;BME280;49700;48.072;7.800;2022-10-16T07:18:42;99489.38;;;16.08;nan
63556;BME280;49700;48.072;7.800;2022-10-16T07:21:18;99506.97;;;16.09;nan
63556;BME280;49700;48.072;7.800;2022-10-16T07:23:44;99511.00;;;16.13;nan
63556;BME280;49700;48.072;7.800;2022-10-16T07:26:10;99512.44;;;16.18;nan
63556;BME280;49700;48.072;7.800;2022-10-16T07:28:36;99517.19;;;16.24;nan
63556;BME280;49700;48.072;7.800;2022-10-16T07:31:07;99520.25;;;16.29;nan
63556;BME280;49700;48.072;7.800;2022-10-16T07:33:34;99513.69;;;16.33;nan
63556;BME280;49700;48.072;7.800;2022-10-16T07:36:00;99525.84;;;16.35;nan
63556;BME280;49700;48.072;7.800;2022-10-16T07:38:26;99531.72;;;16.39;nan
63556;BME280;49700;48.072;7.800;2022-10-16T07:41:10;99529.34;;;16.46;nan
63556;BME280;49700;48.072;7.800;2022-10-16T07:43:36;99538.84;;;16.48;nan
63556;BME280;49700;48.072;7.800;2022-10-16T07:46:02;99539.56;;;16.50;nan
63556;BME280;49700;48.072;7.800;2022-10-16T07:48:30;99539.13;;;16.55;nan
63556;BME280;49700;48.072;7.800;2022-10-16T07:51:16;99534.69;;;16.55;nan
63556;BME280;49700;48.072;7.800;2022-10-16T07:53:42;99534.53;;;16.57;nan
63556;BME280;49700;48.072;7.800;2022-10-16T07:56:08;99542.34;;;16.58;nan
63556;BME280;49700;48.072;7.800;2022-10-16T07:58:34;99540.97;;;16.64;nan
63556;BME280;49700;48.072;7.800;2022-10-16T08:01:07;99549.91;;;16.73;nan
63556;BME280;49700;48.072;7.800;2022-10-16T08:03:33;99557.91;;;16.83;nan
63556;BME280;49700;48.072;7.800;2022-10-16T08:05:59;99555.13;;;16.94;nan
63556;BME280;49700;48.072;7.800;2022-10-16T08:08:26;99547.13;;;17.03;nan
63556;BME280;49700;48.072;7.800;2022-10-16T08:10:52;99552.44;;;17.13;nan
63556;BME280;49700;48.072;7.800;2022-10-16T08:13:17;99554.41;;;17.21;nan
63556;BME280;49700;48.072;7.800;2022-10-16T08:15:44;99554.66;;;17.28;nan
63556;BME280;49700;48.072;7.800;2022-10-16T08:18:11;99545.28;;;17.33;nan
63556;BME280;49700;48.072;7.800;2022-10-16T08:20:37;99550.19;;;17.38;nan
63556;BME280;49700;48.072;7.800;2022-10-16T08:23:02;99552.13;;;17.45;nan
63556;BME280;49700;48.072;7.800;2022-10-16T08:25:28;99542.88;;;17.50;nan
63556;BME280;49700;48.072;7.800;2022-10-16T08:27:54;99545.09;;;17.54;nan
63556;BME280;49700;48.072;7.800;2022-10-16T08:30:20;99550.13;;;17.57;nan
63556;BME280;49700;48.072;7.800;2022-10-16T08:32:46;99548.03;;;17.61;nan
63556;BME280;49700;48.072;7.800;2022-10-16T08:35:13;99557.38;;;17.65;nan
63556;BME280;49700;48.072;7.800;2022-10-16T08:37:39;99556.25;;;17.67;nan
63556;BME280;49700;48.072;7.800;2022-10-16T08:40:06;99539.31;;;17.68;nan
63556;BME280;49700;48.072;7.800;2022-10-16T08:48:29;99562.81;;;17.73;nan
63556;BME280;49700;48.072;7.800;2022-10-16T08:50:56;99555.38;;;17.77;nan
63556;BME280;49700;48.072;7.800;2022-10-16T08:53:42;99562.00;;;17.82;nan
63556;BME280;49700;48.072;7.800;2022-10-16T08:56:09;99570.63;;;17.84;nan
63556;BME280;49700;48.072;7.800;2022-10-16T08:58:35;99564.19;;;17.87;nan
63556;BME280;49700;48.072;7.800;2022-10-16T09:01:03;99565.59;;;17.91;nan
63556;BME280;49700;48.072;7.800;2022-10-16T09:16:30;99563.13;;;18.35;nan
63556;BME280;49700;48.072;7.800;2022-10-16T09:19:17;99568.25;;;18.46;nan
63556;BME280;49700;48.072;7.800;2022-10-16T09:21:45;99576.31;;;18.54;nan
63556;BME280;49700;48.072;7.800;2022-10-16T09:24:20;99573.31;;;18.67;nan
63556;BME280;49700;48.072;7.800;2022-10-16T09:26:47;99586.00;;;19.01;nan
63556;BME280;49700;48.072;7.800;2022-10-16T09:29:14;99584.09;;;19.55;nan
63556;BME280;49700;48.072;7.800;2022-10-16T09:31:40;99587.72;;;19.98;nan
63556;BME280;49700;48.072;7.800;2022-10-16T09:36:55;99596.72;;;20.40;nan
63556;BME280;49700;48.072;7.800;2022-10-16T09:39:22;99600.72;;;20.44;nan
63556;BME280;49700;48.072;7.800;2022-10-16T09:41:48;99589.97;;;20.53;nan
63556;BME280;49700;48.072;7.800;2022-10-16T09:44:23;99598.69;;;20.64;nan
63556;BME280;49700;48.072;7.800;2022-10-16T09:47:03;99593.50;;;20.70;nan
63556;BME280;49700;48.072;7.800;2022-10-16T09:49:29;99600.53;;;20.71;nan
63556;BME280;49700;48.072;7.800;2022-10-16T09:52:12;99588.03;;;20.72;nan
63556;BME280;49700;48.072;7.800;2022-10-16T09:54:49;99587.34;;;20.70;nan
63556;BME280;49700;48.072;7.800;2022-10-16T09:57:15;99584.00;;;20.68;nan
63556;BME280;49700;48.072;7.800;2022-10-16T09:59:50;99584.34;;;20.73;nan
63556;BME280;49700;48.072;7.800;2022-10-16T10:02:19;99587.34;;;20.78;nan
63556;BME280;49700;48.072;7.800;2022-10-16T10:04:52;99586.72;;;20.92;nan
63556;BME280;49700;48.072;7.800;2022-10-16T10:07:28;99587.72;;;20.99;nan
63556;BME280;49700;48.072;7.800;2022-10-16T10:09:59;99580.56;;;21.08;nan
63556;BME280;49700;48.072;7.800;2022-10-16T10:12:29;99575.06;;;21.18;nan
63556;BME280;49700;48.072;7.800;2022-10-16T10:15:03;99579.38;;;21.27;nan
63556;BME280;49700;48.072;7.800;2022-10-16T10:17:29;99580.91;;;21.38;nan
63556;BME280;49700;48.072;7.800;2022-10-16T10:20:00;99580.91;;;21.46;nan
63556;BME280;49700;48.072;7.800;2022-10-16T10:22:40;99582.59;;;21.55;nan
63556;BME280;49700;48.072;7.800;2022-10-16T10:30:24;99584.72;;;21.76;nan
63556;BME280;49700;48.072;7.800;2022-10-16T10:32:57;99587.38;;;21.84;nan
63556;BME280;49700;48.072;7.800;2022-10-16T10:35:49;99579.16;;;21.94;nan
63556;BME280;49700;48.072;7.800;2022-10-16T10:38:29;99580.78;;;22.03;nan
63556;BME280;49700;48.072;7.800;2022-10-16T10:41:09;99583.63;;;22.10;nan
63556;BME280;49700;48.072;7.800;2022-10-16T10:43:57;99576.59;;;22.17;nan
63556;BME280;49700;48.072;7.800;2022-10-16T10:46:35;99575.56;;;22.26;nan
63556;BME280;49700;48.072;7.800;2022-10-16T10:49:22;99579.03;;;22.35;nan
63556;BME280;49700;48.072;7.800;2022-10-16T11:00:42;99580.63;;;22.52;nan
63556;BME280;49700;48.072;7.800;2022-10-16T11:11:59;99574.41;;;22.60;nan
63556;BME280;49700;48.072;7.800;2022-10-16T11:14:41;99573.69;;;22.66;nan
63556;BME280;49700;48.072;7.800;2022-10-16T11:17:22;99565.78;;;22.73;nan
63556;BME280;49700;48.072;7.800;2022-10-16T11:22:37;99566.84;;;22.87;nan
63556;BME280;49700;48.072;7.800;2022-10-16T11:25:19;99560.81;;;22.93;nan
63556;BME280;49700;48.072;7.800;2022-10-16T11:28:07;99572.50;;;23.00;nan
63556;BME280;49700;48.072;7.800;2022-10-16T11:30:52;99571.78;;;23.06;nan
63556;BME280;49700;48.072;7.800;2022-10-16T11:33:29;99567.00;;;23.16;nan
63556;BME280;49700;48.072;7.800;2022-10-16T11:36:08;99567.28;;;23.22;nan
63556;BME280;49700;48.072;7.800;2022-10-16T11:38:51;99557.16;;;23.32;nan
63556;BME280;49700;48.072;7.800;2022-10-16T11:41:45;99552.03;;;23.45;nan
63556;BME280;49700;48.072;7.800;2022-10-16T11:49:53;99554.41;;;23.78;nan
63556;BME280;49700;48.072;7.800;2022-10-16T11:55:49;99543.09;;;23.97;nan
63556;BME280;49700;48.072;7.800;2022-10-16T11:58:12;99542.91;;;24.14;nan
63556;BME280;49700;48.072;7.800;2022-10-16T12:00:55;99540.38;;;24.27;nan
63556;BME280;49700;48.072;7.800;2022-10-16T12:04:21;99541.97;;;24.36;nan
63556;BME280;49700;48.072;7.800;2022-10-16T12:07:03;99544.25;;;24.39;nan
63556;BME280;49700;48.072;7.800;2022-10-16T12:09:31;99537.69;;;24.42;nan
63556;BME280;49700;48.072;7.800;2022-10-16T12:11:58;99533.81;;;24.44;nan
63556;BME280;49700;48.072;7.800;2022-10-16T12:14:34;99529.44;;;24.43;nan
63556;BME280;49700;48.072;7.800;2022-10-16T12:19:56;99528.47;;;24.44;nan
63556;BME280;49700;48.072;7.800;2022-10-16T12:22:22;99530.09;;;24.45;nan
63556;BME280;49700;48.072;7.800;2022-10-16T12:24:51;99534.28;;;24.48;nan
63556;BME280;49700;48.072;7.800;2022-10-16T12:27:32;99534.72;;;24.51;nan
63556;BME280;49700;48.072;7.800;2022-10-16T12:30:04;99537.22;;;24.53;nan
63556;BME280;49700;48.072;7.800;2022-10-16T12:32:35;99538.50;;;24.57;nan
63556;BME280;49700;48.072;7.800;2022-10-16T12:35:02;99519.56;;;24.65;nan
63556;BME280;49700;48.072;7.800;2022-10-16T12:37:34;99524.25;;;24.78;nan
63556;BME280;49700;48.072;7.800;2022-10-16T12:40:12;99520.44;;;24.87;nan
63556;BME280;49700;48.072;7.800;2022-10-16T12:42:38;99509.72;;;24.94;nan
63556;BME280;49700;48.072;7.800;2022-10-16T12:45:24;99503.56;;;25.00;nan
63556;BME280;49700;48.072;7.800;2022-10-16T12:47:52;99506.72;;;25.04;nan
63556;BME280;49700;48.072;7.800;2022-10-16T12:52:53;99504.88;;;25.04;nan
63556;BME280;49700;48.072;7.800;2022-10-16T12:55:20;99511.50;;;25.08;nan
63556;BME280;49700;48.072;7.800;2022-10-16T13:03:27;99503.38;;;25.23;nan
63556;BME280;49700;48.072;7.800;2022-10-16T13:11:24;99500.56;;;25.31;nan
63556;BME280;49700;48.072;7.800;2022-10-16T13:19:12;99499.50;;;25.32;nan
63556;BME280;49700;48.072;7.800;2022-10-16T13:24:54;99497.88;;;25.31;nan
63556;BME280;49700;48.072;7.800;2022-10-16T13:27:50;99501.13;;;25.27;nan
63556;BME280;49700;48.072;7.800;2022-10-16T13:32:51;99492.66;;;25.30;nan
63556;BME280;49700;48.072;7.800;2022-10-16T13:35:28;99494.97;;;25.33;nan
63556;BME280;49700;48.072;7.800;2022-10-16T13:38:15;99495.59;;;25.35;nan
63556;BME280;49700;48.072;7.800;2022-10-16T13:40:49;99498.75;;;25.38;nan
63556;BME280;49700;48.072;7.800;2022-10-16T13:43:17;99500.41;;;25.39;nan
63556;BME280;49700;48.072;7.800;2022-10-16T13:45:53;99498.97;;;25.44;nan
63556;BME280;49700;48.072;7.800;2022-10-16T13:48:18;99504.81;;;25.47;nan
63556;BME280;49700;48.072;7.800;2022-10-16T13:50:44;99499.03;;;25.50;nan
63556;BME280;49700;48.072;7.800;2022-10-16T13:53:14;99496.78;;;25.54;nan
63556;BME280;49700;48.072;7.800;2022-10-16T13:55:40;99492.81;;;25.50;nan
63556;BME280;49700;48.072;7.800;2022-10-16T13:58:12;99500.00;;;25.43;nan
63556;BME280;49700;48.072;7.800;2022-10-16T14:00:38;99491.31;;;25.41;nan
63556;BME280;49700;48.072;7.800;2022-10-16T14:03:07;99490.06;;;25.43;nan
63556;BME280;49700;48.072;7.800;2022-10-16T14:05:48;99495.06;;;25.46;nan
63556;BME280;49700;48.072;7.800;2022-10-16T14:08:14;99503.75;;;25.48;nan
63556;BME280;49700;48.072;7.800;2022-10-16T14:10:40;99498.38;;;25.48;nan
63556;BME280;49700;48.072;7.800;2022-10-16T14:13:06;99495.69;;;25.48;nan
63556;BME280;49700;48.072;7.800;2022-10-16T14:15:34;99494.88;;;25.48;nan
63556;BME280;49700;48.072;7.800;2022-10-16T14:18:01;99497.97;;;25.45;nan
63556;BME280;49700;48.072;7.800;2022-10-16T14:20:30;99502.06;;;25.41;nan
63556;BME280;49700;48.072;7.800;2022-10-16T14:23:18;99500.81;;;25.36;nan
63556;BME280;49700;48.072;7.800;2022-10-16T14:25:44;99498.28;;;25.35;nan
63556;BME280;49700;48.072;7.800;2022-10-16T14:30:49;99500.16;;;25.34;nan
63556;BME280;49700;48.072;7.800;2022-10-16T14:33:21;99499.13;;;25.35;nan
63556;BME280;49700;48.072;7.800;2022-10-16T14:38:25;99501.97;;;25.27;nan
63556;BME280;49700;48.072;7.800;2022-10-16T14:40:51;99497.38;;;25.21;nan
63556;BME280;49700;48.072;7.800;2022-10-16T14:43:27;99503.53;;;25.15;nan
63556;BME280;49700;48.072;7.800;2022-10-16T14:45:56;99508.81;;;25.08;nan
63556;BME280;49700;48.072;7.800;2022-10-16T14:48:22;99498.66;;;25.04;nan
63556;BME280;49700;48.072;7.800;2022-10-16T14:50:47;99507.28;;;24.99;nan
63556;BME280;49700;48.072;7.800;2022-10-16T14:53:13;99507.44;;;24.91;nan
63556;BME280;49700;48.072;7.800;2022-10-16T14:55:39;99515.41;;;24.84;nan
63556;BME280;49700;48.072;7.800;2022-10-16T14:58:06;99518.69;;;24.80;nan
63556;BME280;49700;48.072;7.800;2022-10-16T15:00:35;99517.88;;;24.79;nan
63556;BME280;49700;48.072;7.800;2022-10-16T15:03:00;99518.88;;;24.78;nan
63556;BME280;49700;48.072;7.800;2022-10-16T15:05:27;99517.41;;;24.76;nan
63556;BME280;49700;48.072;7.800;2022-10-16T15:07:53;99516.13;;;24.71;nan
63556;BME280;49700;48.072;7.800;2022-10-16T15:10:20;99518.34;;;24.68;nan
63556;BME280;49700;48.072;7.800;2022-10-16T15:12:47;99520.59;;;24.64;nan
63556;BME280;49700;48.072;7.800;2022-10-16T15:15:24;99522.19;;;24.59;nan